createdAt,value
2022-12-18T00:02:50.449Z,49.67
2022-12-18T00:05:53.474Z,48.33
2022-12-18T00:08:56.388Z,42.47
2022-12-18T00:11:58.593Z,44.53
2022-12-18T00:15:00.861Z,41.20
2022-12-18T00:18:03.565Z,49.20
2022-12-18T00:21:07.100Z,49.05
2022-12-18T00:24:09.746Z,47.50
2022-12-18T00:27:12.049Z,49.45
2022-12-18T00:30:14.389Z,46.13
2022-12-18T00:33:16.619Z,50.93
2022-12-18T00:36:20.861Z,46.40
2022-12-18T00:39:23.218Z,42.08
2022-12-18T00:42:44.066Z,43.72
2022-12-18T00:45:46.580Z,44.60
2022-12-18T00:48:49.056Z,45.63
2022-12-18T00:51:51.427Z,42.55
2022-12-18T00:54:53.781Z,47.88
2022-12-18T00:57:56.018Z,50.40
2022-12-18T01:00:58.361Z,44.03
2022-12-18T01:04:01.441Z,51.07
2022-12-18T01:07:03.701Z,41.35
2022-12-18T01:10:06.682Z,41.17
2022-12-18T01:13:11.048Z,47.10
2022-12-18T01:16:14.318Z,42.40
2022-12-18T01:19:16.599Z,44.87
2022-12-18T01:22:19.001Z,42.80
2022-12-18T01:25:21.296Z,47.47
2022-12-18T01:28:23.622Z,42.83
2022-12-18T01:31:30.396Z,38.10
2022-12-18T01:34:32.716Z,38.80
2022-12-18T01:37:36.233Z,48.00
2022-12-18T01:40:38.566Z,37.97
2022-12-18T01:43:54.883Z,43.63
2022-12-18T01:46:57.136Z,43.87
2022-12-18T01:50:00.746Z,38.30
2022-12-18T01:53:09.223Z,46.72
2022-12-18T01:56:14.568Z,42.35
2022-12-18T01:59:17.051Z,42.42
2022-12-18T02:02:19.941Z,37.03
2022-12-18T02:05:31.517Z,40.97
2022-12-18T02:08:43.385Z,43.63
2022-12-18T02:11:50.547Z,41.85
2022-12-18T02:14:55.927Z,43.63
2022-12-18T02:18:02.985Z,41.63
2022-12-18T02:21:14.377Z,41.77
2022-12-18T02:24:49.008Z,43.25
2022-12-18T02:27:52.166Z,46.58
2022-12-18T02:30:57.472Z,43.50
2022-12-18T02:34:01.390Z,38.63
2022-12-18T02:37:05.481Z,42.80
2022-12-18T02:40:09.440Z,37.08
2022-12-18T02:43:15.295Z,46.20
2022-12-18T02:46:32.280Z,40.90
2022-12-18T02:49:56.314Z,41.37
2022-12-18T02:53:17.491Z,50.07
2022-12-18T02:56:22.712Z,42.58
2022-12-18T02:59:31.876Z,43.83
2022-12-18T03:02:38.575Z,41.15
2022-12-18T03:05:44.156Z,40.80
2022-12-18T03:08:50.209Z,36.07
2022-12-18T03:12:18.126Z,46.13
2022-12-18T03:15:23.136Z,29.70
2022-12-18T03:18:37.919Z,42.28
2022-12-18T03:21:43.707Z,38.90
2022-12-18T03:24:47.365Z,43.47
2022-12-18T03:27:52.751Z,49.75
2022-12-18T03:30:59.110Z,39.45
2022-12-18T03:34:04.528Z,43.80
2022-12-18T03:37:14.905Z,41.87
2022-12-18T03:40:17.439Z,52.00
2022-12-18T03:43:49.705Z,48.38
2022-12-18T03:47:04.340Z,41.92
2022-12-18T03:50:15.902Z,42.22
2022-12-18T03:53:24.980Z,42.37
2022-12-18T03:56:30.636Z,37.57
2022-12-18T03:59:35.181Z,40.97
2022-12-18T04:02:39.369Z,45.42
2022-12-18T04:05:44.163Z,49.95
2022-12-18T04:08:47.924Z,41.13
2022-12-18T04:11:53.900Z,45.27
2022-12-18T04:14:56.710Z,48.45
2022-12-18T04:17:59.440Z,54.90
2022-12-18T04:21:08.190Z,40.60
2022-12-18T04:24:10.723Z,42.80
2022-12-18T04:27:17.922Z,45.97
2022-12-18T04:30:24.564Z,44.60
2022-12-18T04:33:26.888Z,34.70
2022-12-18T04:36:29.451Z,47.13
2022-12-18T04:39:31.983Z,46.70
2022-12-18T04:42:40.415Z,38.53
2022-12-18T04:45:42.704Z,39.50
2022-12-18T04:48:46.687Z,38.40
2022-12-18T04:51:48.907Z,43.05
2022-12-18T04:54:51.450Z,35.43
2022-12-18T04:57:53.744Z,46.87
2022-12-18T05:00:56.259Z,49.50
2022-12-18T05:03:58.540Z,46.03
2022-12-18T05:07:00.774Z,44.95
2022-12-18T05:10:03.321Z,47.60
2022-12-18T05:13:08.261Z,40.27
2022-12-18T05:16:10.650Z,51.08
2022-12-18T05:19:12.853Z,55.03
2022-12-18T05:22:15.449Z,57.83
2022-12-18T05:25:18.141Z,51.37
2022-12-18T05:28:21.074Z,56.27
2022-12-18T05:31:23.472Z,54.85
2022-12-18T05:34:25.735Z,62.92
2022-12-18T05:37:28.227Z,50.55
2022-12-18T05:40:30.435Z,54.57
2022-12-18T05:43:35.065Z,50.17
2022-12-18T05:46:37.457Z,45.78
2022-12-18T05:49:42.631Z,43.75
2022-12-18T05:52:44.818Z,47.55
2022-12-18T05:55:47.470Z,45.43
2022-12-18T05:58:53.024Z,52.43
2022-12-18T06:01:55.347Z,45.58
2022-12-18T06:04:57.700Z,52.97
2022-12-18T06:07:59.902Z,38.35
2022-12-18T06:11:02.141Z,37.77
2022-12-18T06:14:04.911Z,44.90
2022-12-18T06:17:07.273Z,48.38
2022-12-18T06:20:09.755Z,46.25
2022-12-18T06:23:12.144Z,41.80
2022-12-18T06:26:14.852Z,58.00
2022-12-18T06:29:17.043Z,49.63
2022-12-18T06:32:19.337Z,47.78
2022-12-18T06:35:21.567Z,48.50
2022-12-18T06:38:24.688Z,38.10
2022-12-18T06:41:27.231Z,54.57
2022-12-18T06:44:29.491Z,46.50
2022-12-18T06:47:31.659Z,45.83
2022-12-18T06:50:33.883Z,51.53
2022-12-18T06:53:36.128Z,48.50
2022-12-18T06:56:38.393Z,46.57
2022-12-18T06:59:40.537Z,47.07
2022-12-18T07:02:42.949Z,48.10
2022-12-18T07:05:45.256Z,47.50
2022-12-18T07:08:48.008Z,45.83
2022-12-18T07:11:50.268Z,48.00
2022-12-18T07:14:52.519Z,45.47
2022-12-18T07:17:54.803Z,43.90
2022-12-18T07:20:57.020Z,45.00
2022-12-18T07:23:59.601Z,46.58
2022-12-18T07:27:01.851Z,57.43
2022-12-18T07:30:04.285Z,53.40
2022-12-18T07:33:06.564Z,54.13
2022-12-18T07:36:09.025Z,50.38
2022-12-18T07:39:14.590Z,50.92
2022-12-18T07:42:32.009Z,50.83
2022-12-18T07:45:34.416Z,52.47
2022-12-18T07:48:36.687Z,47.90
2022-12-18T07:51:38.834Z,53.67
2022-12-18T07:54:41.472Z,56.30
2022-12-18T07:57:53.421Z,51.50
2022-12-18T08:01:08.798Z,57.17
2022-12-18T08:04:11.106Z,56.53
2022-12-18T08:07:13.945Z,51.85
2022-12-18T08:10:16.580Z,47.13
2022-12-18T08:13:18.751Z,56.67
2022-12-18T08:16:21.663Z,57.50
2022-12-18T08:19:23.910Z,50.92
2022-12-18T08:22:26.330Z,55.20
2022-12-18T08:25:28.603Z,58.15
2022-12-18T08:28:30.808Z,48.27
2022-12-18T08:31:34.045Z,50.03
2022-12-18T08:34:36.551Z,50.85
2022-12-18T08:37:38.903Z,52.15
2022-12-18T08:40:41.148Z,38.10
2022-12-18T08:44:01.917Z,47.20
2022-12-18T08:47:04.931Z,45.20
2022-12-18T08:50:07.235Z,37.30
2022-12-18T08:53:10.185Z,47.53
2022-12-18T08:56:12.598Z,54.17
2022-12-18T08:59:19.524Z,41.93
2022-12-18T09:02:22.609Z,47.97
2022-12-18T09:05:24.888Z,51.88
2022-12-18T09:08:27.383Z,49.88
2022-12-18T09:11:30.346Z,48.85
2022-12-18T09:14:32.641Z,52.37
2022-12-18T09:17:34.920Z,50.57
2022-12-18T09:20:38.056Z,53.85
2022-12-18T09:23:40.436Z,51.83
2022-12-18T09:26:45.015Z,47.22
2022-12-18T09:29:49.786Z,46.57
2022-12-18T09:32:52.155Z,57.03
2022-12-18T09:35:57.021Z,45.00
2022-12-18T09:39:03.759Z,45.53
2022-12-18T09:42:12.113Z,43.35
2022-12-18T09:45:15.994Z,46.47
2022-12-18T09:48:30.366Z,44.53
2022-12-18T09:51:41.137Z,42.55
2022-12-18T09:54:45.380Z,41.80
2022-12-18T09:57:50.310Z,45.28
2022-12-18T10:00:53.210Z,46.30
2022-12-18T10:03:56.072Z,34.83
2022-12-18T10:07:13.767Z,41.60
2022-12-18T10:10:15.974Z,42.67
2022-12-18T10:13:29.201Z,43.53
2022-12-18T10:16:43.642Z,43.37
2022-12-18T10:19:54.228Z,37.83
2022-12-18T10:23:02.569Z,42.90
2022-12-18T10:26:04.840Z,45.15
2022-12-18T10:29:13.849Z,40.22
2022-12-18T10:32:18.201Z,39.47
2022-12-18T10:35:23.751Z,39.17
2022-12-18T10:38:28.057Z,38.55
2022-12-18T10:41:31.918Z,41.47
2022-12-18T10:44:34.152Z,44.70
2022-12-18T10:47:36.895Z,45.30
2022-12-18T10:54:01.610Z,38.70
2022-12-18T10:57:17.890Z,42.65
2022-12-18T11:00:31.240Z,37.30
2022-12-18T11:03:42.767Z,35.40
2022-12-18T11:07:00.555Z,35.07
2022-12-18T11:10:02.834Z,44.72
2022-12-18T11:13:12.990Z,32.63
2022-12-18T11:16:21.603Z,40.03
2022-12-18T11:19:41.119Z,33.70
2022-12-18T11:22:43.679Z,34.17
2022-12-18T11:25:53.212Z,38.70
2022-12-18T11:29:09.170Z,39.47
2022-12-18T11:32:30.279Z,33.30
2022-12-18T11:35:41.025Z,36.23
2022-12-18T11:38:44.338Z,40.30
2022-12-18T11:42:11.058Z,38.75
2022-12-18T11:45:13.907Z,35.20
2022-12-18T11:48:27.933Z,36.45
2022-12-18T11:51:36.317Z,40.20
2022-12-18T11:54:38.648Z,36.13
2022-12-18T11:57:47.206Z,34.20
2022-12-18T12:00:54.412Z,36.50
2022-12-18T12:04:15.650Z,37.83
2022-12-18T12:07:27.232Z,38.87
2022-12-18T12:10:38.194Z,36.63
2022-12-18T12:13:44.842Z,38.08
2022-12-18T12:16:50.123Z,37.38
2022-12-18T12:20:11.220Z,38.58
2022-12-18T12:23:38.759Z,34.30
2022-12-18T12:26:40.965Z,30.83
2022-12-18T12:29:48.930Z,25.80
2022-12-18T12:32:51.191Z,29.58
2022-12-18T12:36:19.849Z,26.77
2022-12-18T12:39:24.355Z,27.53
2022-12-18T12:42:54.137Z,28.23
2022-12-18T12:46:07.658Z,31.10
2022-12-18T12:49:15.280Z,25.33
2022-12-18T12:52:23.993Z,31.40
2022-12-18T12:55:28.048Z,31.90
2022-12-18T12:58:34.595Z,26.20
2022-12-18T13:01:42.930Z,25.55
2022-12-18T13:04:48.668Z,33.42
2022-12-18T13:07:54.201Z,32.63
2022-12-18T13:11:17.150Z,26.30
2022-12-18T13:14:23.555Z,29.53
2022-12-18T13:17:30.368Z,29.92
2022-12-18T13:20:37.254Z,34.03
2022-12-18T13:23:40.055Z,27.27
2022-12-18T13:26:43.076Z,32.63
2022-12-18T13:29:46.289Z,36.37
2022-12-18T13:32:49.125Z,29.65
2022-12-18T13:35:51.291Z,31.98
2022-12-18T13:39:12.239Z,32.67
2022-12-18T13:42:34.565Z,34.10
2022-12-18T13:45:42.780Z,31.67
2022-12-18T13:48:50.558Z,32.72
2022-12-18T13:51:55.455Z,35.90
2022-12-18T13:54:58.841Z,40.97
2022-12-18T13:58:05.732Z,36.77
2022-12-18T14:01:22.471Z,47.43
2022-12-18T14:04:26.961Z,43.97
2022-12-18T14:07:34.534Z,42.70
2022-12-18T14:10:49.753Z,50.45
2022-12-18T14:13:53.244Z,47.10
2022-12-18T14:16:55.591Z,48.07
2022-12-18T14:19:58.276Z,47.17
2022-12-18T14:23:01.298Z,46.58
2022-12-18T14:26:06.245Z,55.95
2022-12-18T14:29:28.220Z,52.63
2022-12-18T14:32:30.448Z,53.93
2022-12-18T14:35:36.866Z,61.70
2022-12-18T14:38:40.585Z,58.88
2022-12-18T14:41:42.983Z,56.85
2022-12-18T14:45:13.987Z,52.20
2022-12-18T14:48:15.548Z,52.93
2022-12-18T14:51:29.033Z,51.42
2022-12-18T14:54:32.226Z,53.03
2022-12-18T14:57:37.406Z,52.03
2022-12-18T15:00:42.495Z,53.17
2022-12-18T15:03:45.366Z,56.70
2022-12-18T15:06:49.248Z,60.42
2022-12-18T15:10:03.876Z,53.03
2022-12-18T15:13:06.636Z,50.17
2022-12-18T15:16:12.858Z,47.77
2022-12-18T15:19:17.592Z,55.33
2022-12-18T15:22:26.720Z,58.55
2022-12-18T15:25:33.231Z,57.80
2022-12-18T15:28:40.447Z,61.20
2022-12-18T15:31:43.132Z,56.07
2022-12-18T15:34:45.696Z,60.13
2022-12-18T15:37:48.383Z,59.17
2022-12-18T15:40:50.793Z,59.83
2022-12-18T15:43:53.804Z,57.72
2022-12-18T15:46:55.960Z,57.37
2022-12-18T15:49:58.336Z,56.33
2022-12-18T15:53:00.603Z,57.75
2022-12-18T15:56:21.723Z,60.55
2022-12-18T15:59:24.572Z,63.83
2022-12-18T16:02:27.567Z,61.00
2022-12-18T16:05:30.632Z,62.87
2022-12-18T16:08:33.443Z,65.75
2022-12-18T16:11:41.352Z,62.08
2022-12-18T16:14:44.172Z,63.50
2022-12-18T16:17:47.522Z,56.57
2022-12-18T16:20:50.147Z,67.30
2022-12-18T16:23:52.568Z,68.88
2022-12-18T16:26:57.288Z,60.58
2022-12-18T16:29:59.709Z,68.60
2022-12-18T16:33:02.266Z,72.70
2022-12-18T16:36:04.825Z,66.33
2022-12-18T16:39:07.643Z,62.88
2022-12-18T16:42:13.699Z,70.05
2022-12-18T16:45:17.184Z,61.42
2022-12-18T16:48:19.604Z,66.17
2022-12-18T16:51:22.069Z,68.50
2022-12-18T16:54:24.737Z,64.40
2022-12-18T16:57:27.360Z,73.82
2022-12-18T17:00:29.757Z,78.18
2022-12-18T17:03:32.262Z,70.07
2022-12-18T17:06:36.151Z,71.60
2022-12-18T17:09:38.628Z,74.57
2022-12-18T17:12:41.129Z,74.57
2022-12-18T17:15:43.663Z,74.57
2022-12-18T17:18:45.999Z,70.07
2022-12-18T17:21:49.749Z,76.33
2022-12-18T17:24:52.279Z,73.85
2022-12-18T17:27:54.765Z,80.22
2022-12-18T17:30:57.378Z,84.32
2022-12-18T17:34:01.178Z,81.97
2022-12-18T17:37:04.084Z,78.83
2022-12-18T17:40:06.876Z,79.18
2022-12-18T17:43:09.750Z,76.28
2022-12-18T17:46:13.794Z,79.00
2022-12-18T17:49:16.387Z,76.10
2022-12-18T17:52:18.709Z,84.97
2022-12-18T17:55:20.978Z,77.68
2022-12-18T17:58:23.906Z,75.93
2022-12-18T18:01:26.866Z,90.80
2022-12-18T18:04:29.434Z,80.47
2022-12-18T18:07:31.813Z,80.57
2022-12-18T18:10:40.879Z,88.53
2022-12-18T18:14:01.392Z,78.70
2022-12-18T18:17:04.641Z,79.35
2022-12-18T18:20:08.356Z,87.70
2022-12-18T18:23:11.457Z,90.20
2022-12-18T18:26:13.968Z,81.40
2022-12-18T18:29:21.136Z,81.88
2022-12-18T18:32:23.649Z,83.47
2022-12-18T18:35:52.744Z,87.60
2022-12-18T18:38:48.766Z,77.83
2022-12-18T18:41:51.136Z,80.97
2022-12-18T18:44:53.554Z,80.32
2022-12-18T18:47:55.935Z,72.75
2022-12-18T18:50:59.383Z,88.27
2022-12-18T18:54:01.708Z,79.77
2022-12-18T18:57:20.286Z,89.25
2022-12-18T19:00:24.667Z,83.00
2022-12-18T19:03:28.063Z,86.95
2022-12-18T19:06:30.758Z,80.57
2022-12-18T19:09:33.945Z,81.77
2022-12-18T19:12:54.714Z,78.05
2022-12-18T19:16:05.323Z,85.15
2022-12-18T19:19:08.001Z,86.05
2022-12-18T19:22:11.025Z,83.73
2022-12-18T19:25:13.544Z,81.80
2022-12-18T19:28:22.007Z,87.18
2022-12-18T19:31:29.195Z,79.30
2022-12-18T19:34:34.484Z,95.30
2022-12-18T19:37:36.737Z,89.17
2022-12-18T19:40:42.301Z,98.60
2022-12-18T19:43:45.009Z,97.20
2022-12-18T19:46:49.694Z,81.85
2022-12-18T19:49:52.261Z,87.28
2022-12-18T19:52:54.666Z,74.93
2022-12-18T19:55:57.068Z,72.87
2022-12-18T19:58:59.858Z,85.82
2022-12-18T20:02:02.479Z,72.75
2022-12-18T20:05:05.784Z,74.03
2022-12-18T20:08:09.635Z,71.47
2022-12-18T20:11:11.845Z,82.23
2022-12-18T20:14:23.163Z,70.25
2022-12-18T20:17:26.202Z,71.03
2022-12-18T20:20:30.451Z,65.95
2022-12-18T20:23:33.772Z,65.43
2022-12-18T20:26:40.589Z,63.60
2022-12-18T20:29:43.721Z,61.75
2022-12-18T20:32:45.900Z,66.65
2022-12-18T20:35:48.289Z,64.30
2022-12-18T20:38:53.125Z,61.70
2022-12-18T20:41:59.761Z,61.47
2022-12-18T20:45:02.064Z,67.70
2022-12-18T20:48:04.325Z,63.53
2022-12-18T20:51:10.740Z,67.05
2022-12-18T20:54:13.063Z,65.10
2022-12-18T20:57:15.286Z,64.67
2022-12-18T21:00:20.057Z,66.50
2022-12-18T21:03:23.654Z,59.15
2022-12-18T21:06:25.964Z,74.07
2022-12-18T21:09:28.205Z,67.53
2022-12-18T21:12:43.895Z,78.27
2022-12-18T21:15:52.961Z,80.90
2022-12-18T21:18:56.323Z,80.00
2022-12-18T21:21:59.601Z,69.68
2022-12-18T21:25:01.961Z,74.57
2022-12-18T21:28:04.269Z,72.47
2022-12-18T21:31:06.600Z,77.97
2022-12-18T21:34:15.428Z,92.03
2022-12-18T21:37:17.648Z,81.22
2022-12-18T21:40:19.863Z,73.20
2022-12-18T21:43:40.697Z,71.07
2022-12-18T21:46:44.266Z,70.32
2022-12-18T21:49:46.544Z,73.30
2022-12-18T21:52:48.736Z,77.38
2022-12-18T21:55:57.754Z,96.33
2022-12-18T21:58:59.951Z,85.23
2022-12-18T22:02:04.517Z,93.38
2022-12-18T22:05:07.071Z,85.13
2022-12-18T22:08:09.417Z,88.55
2022-12-18T22:11:12.682Z,91.20
2022-12-18T22:14:15.387Z,105.73
2022-12-18T22:17:20.088Z,121.63
2022-12-18T22:20:23.591Z,104.15
2022-12-18T22:23:25.750Z,133.35
2022-12-18T22:26:28.978Z,122.90
2022-12-18T22:29:49.997Z,101.90
2022-12-18T22:32:52.342Z,114.72
2022-12-18T22:35:54.648Z,116.35
2022-12-18T22:38:56.901Z,107.25
2022-12-18T22:41:59.285Z,112.70
2022-12-18T22:45:01.450Z,106.77
2022-12-18T22:48:04.158Z,111.40
2022-12-18T22:51:06.376Z,106.22
2022-12-18T22:54:08.824Z,107.70
2022-12-18T22:57:11.427Z,101.07
2022-12-18T23:00:13.911Z,117.03
2022-12-18T23:03:16.153Z,89.30
2022-12-18T23:06:18.992Z,83.90
2022-12-18T23:09:21.231Z,100.07
2022-12-18T23:12:23.424Z,91.73
2022-12-18T23:15:28.075Z,101.73
2022-12-18T23:18:30.740Z,90.65
2022-12-18T23:21:33.311Z,107.60
2022-12-18T23:24:36.252Z,98.10
2022-12-18T23:27:38.417Z,102.67
2022-12-18T23:30:40.635Z,91.67
2022-12-18T23:33:43.528Z,107.30
2022-12-18T23:36:47.867Z,116.85
2022-12-18T23:39:51.502Z,97.05
2022-12-18T23:42:53.755Z,106.00
2022-12-18T23:45:55.979Z,134.20
2022-12-18T23:49:02.007Z,110.95
2022-12-18T23:52:04.225Z,99.53
2022-12-18T23:55:06.732Z,107.78
2022-12-18T23:58:18.813Z,110.60
